Gruver, Texas
Current Conditions -  °F | °C
As of 9:53 AM on Wednesday 26 Nov 2014 (Local Time) from KGUY Reporting Station
Clear Clear  
Wind Chill: 33°   Ceiling: Unl
Heat Index: 42°   Visibility: 10mi
Dew Point: 28°   Wind: 22mph
Humidity: 58%   Direction: 340°NNW
Pressure: 30.26"   Gusts: 30mph
Location:  36.27°N, 101.41°W
Report Text: KGUY 261553Z AUTO 34019G26KT 10SM CLR 06/M02 A3026 RMK AO2 PK WND 33026/1547 SLP249 T00561022
Loading
Personal Weather Stations






























Interactive Weather Map New forecast layout! Learn more

10-Day Weather Forecast

Advertisements
Track Severe Weather on mobile